FIN31 EFHK-CYYZ
Flight info
| Callsign | FIN31 |
|---|---|
| Flight time | N/A |
| Altitude | 38000 |
| Route | NEPEK Y357 EVLIT DCT TOGMI DCT OSLAV DCT XEBIL DCT ABADA/M081F380 DCT 65N007W 65N019W DCT 6430N DCT 5950N/M080F400 DCT ROSVO/N0455F400 IMEBA9 |
| Aircraft | A333/H-SDE3GHIJ2J3J5M1RVWXY/LB2D1 |
Departure
| Time | N/A |
|---|---|
| Airport | Helsinki Vantaa Airport (EFHK) |
Arrival
| Time | 2026-05-04 21:15 |
|---|---|
| Airport | Toronto Pearson International Airport (CYYZ) |
| Time | Latitude | Longitude | Altitude | Speed | Heading |
|---|---|---|---|---|---|
| 2026-05-04 19:00 | 54.57691 | -62.72210 | 37462 ft | 467 kts | 228° |
| 2026-05-04 19:00 | 54.55718 | -62.76623 | 37462 ft | 467 kts | 228° |
| 2026-05-04 19:01 | 54.51734 | -62.85509 | 37498 ft | 469 kts | 228° |
| 2026-05-04 19:01 | 54.47727 | -62.94408 | 37727 ft | 473 kts | 228° |
| 2026-05-04 19:02 | 54.45709 | -62.98883 | 37947 ft | 472 kts | 228° |
| 2026-05-04 19:02 | 54.43699 | -63.03332 | 38144 ft | 472 kts | 229° |
| 2026-05-04 19:02 | 54.41692 | -63.07765 | 38311 ft | 471 kts | 229° |
| 2026-05-04 19:02 | 54.39668 | -63.12229 | 38446 ft | 471 kts | 229° |
| 2026-05-04 19:03 | 54.37673 | -63.16619 | 38586 ft | 471 kts | 229° |
| 2026-05-04 19:03 | 54.35659 | -63.21043 | 38724 ft | 471 kts | 229° |
| 2026-05-04 19:03 | 54.33635 | -63.25479 | 38826 ft | 471 kts | 229° |
| 2026-05-04 19:03 | 54.31620 | -63.29890 | 38955 ft | 471 kts | 229° |
| 2026-05-04 19:04 | 54.29590 | -63.34324 | 39096 ft | 471 kts | 229° |
| 2026-05-04 19:04 | 54.27591 | -63.38684 | 39244 ft | 470 kts | 229° |
| 2026-05-04 19:04 | 54.25568 | -63.43089 | 39394 ft | 470 kts | 229° |
| 2026-05-04 19:04 | 54.23533 | -63.47511 | 39477 ft | 472 kts | 229° |
| 2026-05-04 19:05 | 54.19473 | -63.56308 | 39486 ft | 473 kts | 229° |
| 2026-05-04 19:05 | 54.15406 | -63.65093 | 39490 ft | 473 kts | 228° |
| 2026-05-04 19:06 | 54.11299 | -63.73934 | 39489 ft | 474 kts | 229° |
| 2026-05-04 19:06 | 54.07214 | -63.82694 | 39496 ft | 474 kts | 228° |
| 2026-05-04 19:07 | 54.03785 | -63.90023 | 39502 ft | 475 kts | 228° |
| 2026-05-04 19:07 | 53.99667 | -63.98799 | 39500 ft | 475 kts | 228° |
| 2026-05-04 19:08 | 53.95546 | -64.07548 | 39502 ft | 474 kts | 227° |
| 2026-05-04 19:08 | 53.91435 | -64.16248 | 39498 ft | 472 kts | 227° |
| 2026-05-04 19:09 | 53.87329 | -64.24905 | 39507 ft | 472 kts | 227° |
| 2026-05-04 19:09 | 53.83188 | -64.33603 | 39503 ft | 472 kts | 227° |
| 2026-05-04 19:10 | 53.79763 | -64.40777 | 39515 ft | 472 kts | 228° |
| 2026-05-04 19:10 | 53.74941 | -64.50843 | 39508 ft | 469 kts | 228° |
| 2026-05-04 19:11 | 53.70843 | -64.59364 | 39514 ft | 468 kts | 228° |
| 2026-05-04 19:11 | 53.66761 | -64.67821 | 39537 ft | 468 kts | 228° |
| 2026-05-04 19:12 | 53.60583 | -64.80568 | 39554 ft | 468 kts | 227° |
| 2026-05-04 19:13 | 53.56469 | -64.89021 | 39552 ft | 466 kts | 228° |
| 2026-05-04 19:13 | 53.52362 | -64.97432 | 39545 ft | 465 kts | 228° |
| 2026-05-04 19:14 | 53.48242 | -65.05840 | 39542 ft | 465 kts | 227° |
| 2026-05-04 19:14 | 53.44134 | -65.14194 | 39552 ft | 465 kts | 227° |
| 2026-05-04 19:15 | 53.40022 | -65.22530 | 39557 ft | 465 kts | 227° |
| 2026-05-04 19:15 | 53.35874 | -65.30910 | 39559 ft | 465 kts | 227° |
| 2026-05-04 19:16 | 53.31747 | -65.39221 | 39560 ft | 465 kts | 227° |
| 2026-05-04 19:16 | 53.27613 | -65.47518 | 39561 ft | 465 kts | 227° |
| 2026-05-04 19:17 | 53.23468 | -65.55810 | 39577 ft | 465 kts | 227° |
| 2026-05-04 19:17 | 53.19330 | -65.64058 | 39560 ft | 466 kts | 227° |
| 2026-05-04 19:18 | 53.15166 | -65.72332 | 39573 ft | 466 kts | 227° |
| 2026-05-04 19:18 | 53.10993 | -65.80597 | 39557 ft | 466 kts | 227° |
| 2026-05-04 19:19 | 53.06800 | -65.88874 | 39557 ft | 466 kts | 227° |
| 2026-05-04 19:19 | 53.02627 | -65.97084 | 39578 ft | 467 kts | 227° |
| 2026-05-04 19:20 | 52.98407 | -66.05357 | 39567 ft | 468 kts | 227° |
| 2026-05-04 19:20 | 52.94195 | -66.13589 | 39570 ft | 468 kts | 227° |
| 2026-05-04 19:21 | 52.89997 | -66.21768 | 39572 ft | 468 kts | 227° |
| 2026-05-04 19:21 | 52.85787 | -66.29943 | 39580 ft | 468 kts | 227° |
| 2026-05-04 19:22 | 52.81557 | -66.38129 | 39582 ft | 468 kts | 227° |
| 2026-05-04 19:22 | 52.77331 | -66.46280 | 39584 ft | 468 kts | 227° |
| 2026-05-04 19:23 | 52.73080 | -66.54454 | 39585 ft | 468 kts | 227° |
| 2026-05-04 19:23 | 52.68845 | -66.62571 | 39585 ft | 468 kts | 227° |
| 2026-05-04 19:24 | 52.64603 | -66.70672 | 39588 ft | 467 kts | 227° |
| 2026-05-04 19:24 | 52.60377 | -66.78720 | 39593 ft | 467 kts | 227° |
| 2026-05-04 19:25 | 52.56115 | -66.86808 | 39595 ft | 467 kts | 227° |
| 2026-05-04 19:25 | 52.51865 | -66.94849 | 39595 ft | 467 kts | 226° |
| 2026-05-04 19:26 | 52.47608 | -67.02877 | 39598 ft | 467 kts | 227° |
| 2026-05-04 19:26 | 52.43349 | -67.10882 | 39592 ft | 465 kts | 227° |
| 2026-05-04 19:27 | 52.39116 | -67.18814 | 39593 ft | 464 kts | 227° |
| 2026-05-04 19:27 | 52.34840 | -67.26799 | 39603 ft | 464 kts | 227° |
| 2026-05-04 19:28 | 52.30589 | -67.34714 | 39601 ft | 464 kts | 227° |
| 2026-05-04 19:28 | 52.26327 | -67.42625 | 39603 ft | 464 kts | 227° |
| 2026-05-04 19:29 | 52.22087 | -67.50471 | 39601 ft | 463 kts | 227° |
| 2026-05-04 19:29 | 52.17832 | -67.58316 | 39609 ft | 463 kts | 227° |
| 2026-05-04 19:30 | 52.13562 | -67.66168 | 39617 ft | 463 kts | 226° |
| 2026-05-04 19:30 | 52.09294 | -67.73989 | 39618 ft | 462 kts | 227° |
| 2026-05-04 19:31 | 52.05017 | -67.81804 | 39616 ft | 462 kts | 227° |
| 2026-05-04 19:31 | 52.00730 | -67.89612 | 39617 ft | 462 kts | 227° |
| 2026-05-04 19:32 | 51.96467 | -67.97352 | 39616 ft | 462 kts | 227° |
| 2026-05-04 19:32 | 51.92171 | -68.05127 | 39629 ft | 462 kts | 226° |
| 2026-05-04 19:33 | 51.87885 | -68.12861 | 39619 ft | 461 kts | 226° |
| 2026-05-04 19:33 | 51.83605 | -68.20559 | 39619 ft | 460 kts | 227° |
| 2026-05-04 19:34 | 51.79318 | -68.28252 | 39618 ft | 460 kts | 227° |
| 2026-05-04 19:34 | 51.75049 | -68.35889 | 39620 ft | 460 kts | 226° |
| 2026-05-04 19:35 | 51.70747 | -68.43557 | 39619 ft | 460 kts | 226° |
| 2026-05-04 19:35 | 51.66455 | -68.51186 | 39619 ft | 459 kts | 226° |
| 2026-05-04 19:36 | 51.62165 | -68.58786 | 39613 ft | 459 kts | 227° |
| 2026-05-04 19:36 | 51.57853 | -68.66404 | 39615 ft | 459 kts | 227° |
| 2026-05-04 19:37 | 51.53561 | -68.73961 | 39614 ft | 459 kts | 226° |
| 2026-05-04 19:37 | 51.49256 | -68.81519 | 39616 ft | 459 kts | 226° |
| 2026-05-04 19:38 | 51.44936 | -68.89082 | 39615 ft | 459 kts | 226° |
| 2026-05-04 19:38 | 51.40613 | -68.96628 | 39616 ft | 459 kts | 226° |
| 2026-05-04 19:39 | 51.36280 | -69.04169 | 39618 ft | 460 kts | 226° |
| 2026-05-04 19:39 | 51.31973 | -69.11639 | 39616 ft | 459 kts | 226° |
| 2026-05-04 19:40 | 51.27629 | -69.19152 | 39617 ft | 459 kts | 226° |
| 2026-05-04 19:40 | 51.23282 | -69.26648 | 39618 ft | 460 kts | 226° |
| 2026-05-04 19:41 | 51.18956 | -69.34085 | 39620 ft | 460 kts | 226° |
| 2026-05-04 19:41 | 51.14589 | -69.41569 | 39622 ft | 459 kts | 226° |
| 2026-05-04 19:42 | 51.10254 | -69.48977 | 39625 ft | 458 kts | 226° |
| 2026-05-04 19:42 | 51.05905 | -69.56389 | 39624 ft | 458 kts | 226° |
| 2026-05-04 19:43 | 51.01570 | -69.63751 | 39630 ft | 458 kts | 226° |
| 2026-05-04 19:43 | 50.97194 | -69.71164 | 39630 ft | 458 kts | 226° |
| 2026-05-04 19:44 | 50.92835 | -69.78528 | 39631 ft | 459 kts | 226° |
| 2026-05-04 19:44 | 50.88470 | -69.85879 | 39645 ft | 459 kts | 226° |
| 2026-05-04 19:45 | 50.84101 | -69.93213 | 39638 ft | 460 kts | 226° |
| 2026-05-04 19:45 | 50.79685 | -70.00605 | 39636 ft | 460 kts | 226° |
| 2026-05-04 19:46 | 50.75318 | -70.07895 | 39629 ft | 459 kts | 226° |
| 2026-05-04 19:46 | 50.70925 | -70.15206 | 39629 ft | 459 kts | 226° |
| 2026-05-04 19:47 | 50.66508 | -70.22536 | 39640 ft | 459 kts | 226° |
| 2026-05-04 19:47 | 50.62130 | -70.29780 | 39637 ft | 459 kts | 226° |
| 2026-05-04 19:48 | 50.57719 | -70.37056 | 39638 ft | 459 kts | 226° |
| 2026-05-04 19:48 | 50.53308 | -70.44313 | 39634 ft | 459 kts | 226° |
| 2026-05-04 19:49 | 50.48909 | -70.51530 | 39633 ft | 458 kts | 226° |
| 2026-05-04 19:49 | 50.44476 | -70.58781 | 39628 ft | 458 kts | 226° |
| 2026-05-04 19:50 | 50.40076 | -70.65957 | 39637 ft | 459 kts | 226° |
| 2026-05-04 19:50 | 50.35654 | -70.73149 | 39635 ft | 458 kts | 226° |
| 2026-05-04 19:51 | 50.31208 | -70.80358 | 39640 ft | 458 kts | 226° |
| 2026-05-04 19:51 | 50.26773 | -70.87529 | 39634 ft | 458 kts | 226° |
| 2026-05-04 19:52 | 50.22346 | -70.94668 | 39630 ft | 458 kts | 226° |
| 2026-05-04 19:52 | 50.17910 | -71.01801 | 39633 ft | 459 kts | 226° |
| 2026-05-04 19:53 | 50.13459 | -71.08939 | 39640 ft | 459 kts | 226° |
| 2026-05-04 19:53 | 50.09011 | -71.16051 | 39638 ft | 459 kts | 226° |
| 2026-05-04 19:54 | 50.04551 | -71.23161 | 39636 ft | 459 kts | 226° |
| 2026-05-04 19:54 | 50.00114 | -71.30213 | 39639 ft | 459 kts | 226° |
| 2026-05-04 19:55 | 49.95646 | -71.37296 | 39640 ft | 459 kts | 226° |
| 2026-05-04 19:55 | 49.91146 | -71.44409 | 39646 ft | 459 kts | 226° |
| 2026-05-04 19:56 | 49.86686 | -71.51438 | 39646 ft | 459 kts | 226° |
| 2026-05-04 19:56 | 49.82217 | -71.58463 | 39650 ft | 459 kts | 226° |
| 2026-05-04 19:57 | 49.77714 | -71.65522 | 39644 ft | 459 kts | 226° |
| 2026-05-04 19:57 | 49.73239 | -71.72516 | 39646 ft | 459 kts | 226° |
| 2026-05-04 19:58 | 49.68737 | -71.79534 | 39647 ft | 459 kts | 226° |
| 2026-05-04 19:58 | 49.64237 | -71.86527 | 39647 ft | 459 kts | 226° |
| 2026-05-04 19:59 | 49.59725 | -71.93519 | 39646 ft | 459 kts | 226° |
| 2026-05-04 19:59 | 49.55226 | -72.00473 | 39643 ft | 459 kts | 226° |
| 2026-05-04 20:00 | 49.50719 | -72.07421 | 39650 ft | 459 kts | 226° |
| 2026-05-04 20:00 | 49.46219 | -72.14338 | 39652 ft | 459 kts | 226° |
| 2026-05-04 20:01 | 49.41690 | -72.21281 | 39651 ft | 459 kts | 226° |
| 2026-05-04 20:01 | 49.37160 | -72.28205 | 39648 ft | 459 kts | 226° |
| 2026-05-04 20:02 | 49.32639 | -72.35099 | 39654 ft | 459 kts | 226° |
| 2026-05-04 20:02 | 49.28128 | -72.41957 | 39649 ft | 459 kts | 226° |
| 2026-05-04 20:03 | 49.23600 | -72.48822 | 39654 ft | 458 kts | 226° |
| 2026-05-04 20:03 | 49.19052 | -72.55698 | 39655 ft | 458 kts | 226° |
| 2026-05-04 20:04 | 49.14514 | -72.62542 | 39655 ft | 458 kts | 226° |
| 2026-05-04 20:04 | 49.09981 | -72.69360 | 39658 ft | 458 kts | 226° |
| 2026-05-04 20:05 | 49.05457 | -72.76145 | 39658 ft | 458 kts | 226° |
| 2026-05-04 20:05 | 49.00898 | -72.82965 | 39661 ft | 458 kts | 226° |
| 2026-05-04 20:06 | 48.97126 | -72.88593 | 39663 ft | 458 kts | 226° |
| 2026-05-04 20:06 | 48.92557 | -72.95393 | 39653 ft | 458 kts | 226° |
| 2026-05-04 20:07 | 48.88021 | -73.02126 | 39654 ft | 457 kts | 226° |
| 2026-05-04 20:07 | 48.83456 | -73.08884 | 39653 ft | 457 kts | 226° |
| 2026-05-04 20:08 | 48.78913 | -73.15591 | 39650 ft | 457 kts | 226° |
| 2026-05-04 20:08 | 48.74369 | -73.22284 | 39650 ft | 457 kts | 225° |
| 2026-05-04 20:09 | 48.69814 | -73.28974 | 39652 ft | 456 kts | 226° |
| 2026-05-04 20:09 | 48.65252 | -73.35655 | 39652 ft | 456 kts | 225° |
| 2026-05-04 20:10 | 48.60694 | -73.42313 | 39653 ft | 456 kts | 225° |
| 2026-05-04 20:10 | 48.56124 | -73.48974 | 39659 ft | 456 kts | 225° |
| 2026-05-04 20:11 | 48.51564 | -73.55600 | 39658 ft | 456 kts | 226° |
| 2026-05-04 20:11 | 48.46983 | -73.62240 | 39661 ft | 455 kts | 225° |
| 2026-05-04 20:12 | 48.42424 | -73.68831 | 39665 ft | 455 kts | 225° |
| 2026-05-04 20:12 | 48.37839 | -73.75441 | 39664 ft | 455 kts | 225° |
| 2026-05-04 20:13 | 48.33269 | -73.82011 | 39663 ft | 455 kts | 225° |
| 2026-05-04 20:13 | 48.28707 | -73.88553 | 39668 ft | 455 kts | 225° |
| 2026-05-04 20:14 | 48.24123 | -73.95110 | 39665 ft | 455 kts | 225° |
| 2026-05-04 20:14 | 48.19536 | -74.01656 | 39664 ft | 455 kts | 225° |
| 2026-05-04 20:15 | 48.14945 | -74.08188 | 39668 ft | 454 kts | 225° |
| 2026-05-04 20:15 | 48.10369 | -74.14683 | 39671 ft | 453 kts | 225° |
| 2026-05-04 20:16 | 48.05807 | -74.21143 | 39674 ft | 453 kts | 225° |
| 2026-05-04 20:16 | 48.01204 | -74.27642 | 39676 ft | 453 kts | 225° |
| 2026-05-04 20:17 | 47.96629 | -74.34083 | 39685 ft | 452 kts | 225° |
| 2026-05-04 20:17 | 47.92056 | -74.40506 | 39669 ft | 451 kts | 225° |
| 2026-05-04 20:18 | 47.87504 | -74.46885 | 39685 ft | 451 kts | 225° |
| 2026-05-04 20:18 | 47.82915 | -74.53299 | 39676 ft | 451 kts | 225° |
| 2026-05-04 20:19 | 47.78340 | -74.59677 | 39687 ft | 451 kts | 225° |
| 2026-05-04 20:19 | 47.73776 | -74.66026 | 39673 ft | 451 kts | 225° |
| 2026-05-04 20:20 | 47.69185 | -74.72393 | 39680 ft | 451 kts | 225° |
| 2026-05-04 20:20 | 47.64630 | -74.78695 | 39683 ft | 449 kts | 225° |
| 2026-05-04 20:21 | 47.60043 | -74.85024 | 39679 ft | 448 kts | 225° |
| 2026-05-04 20:21 | 47.53215 | -74.94420 | 39681 ft | 447 kts | 225° |
| 2026-05-04 20:22 | 47.48653 | -75.00678 | 39674 ft | 447 kts | 225° |
| 2026-05-04 20:22 | 47.44090 | -75.06922 | 39669 ft | 447 kts | 225° |
| 2026-05-04 20:23 | 47.39537 | -75.13135 | 39675 ft | 446 kts | 225° |
| 2026-05-04 20:23 | 47.34979 | -75.19341 | 39675 ft | 446 kts | 225° |
| 2026-05-04 20:24 | 47.30410 | -75.25547 | 39674 ft | 446 kts | 225° |
| 2026-05-04 20:24 | 47.25837 | -75.31742 | 39666 ft | 446 kts | 225° |
| 2026-05-04 20:25 | 47.21295 | -75.37880 | 39672 ft | 445 kts | 225° |
| 2026-05-04 20:25 | 47.16734 | -75.44029 | 39672 ft | 445 kts | 225° |
| 2026-05-04 20:26 | 47.12165 | -75.50175 | 39677 ft | 445 kts | 225° |
| 2026-05-04 20:26 | 47.07627 | -75.56263 | 39664 ft | 445 kts | 225° |
| 2026-05-04 20:27 | 47.03042 | -75.62400 | 39667 ft | 445 kts | 225° |
| 2026-05-04 20:27 | 46.98482 | -75.68489 | 39664 ft | 445 kts | 225° |
| 2026-05-04 20:28 | 46.93908 | -75.74581 | 39667 ft | 445 kts | 225° |
| 2026-05-04 20:28 | 46.89312 | -75.80689 | 39664 ft | 445 kts | 225° |
| 2026-05-04 20:29 | 46.84744 | -75.86744 | 39661 ft | 444 kts | 225° |
| 2026-05-04 20:29 | 46.80159 | -75.92807 | 39661 ft | 444 kts | 225° |
| 2026-05-04 20:30 | 46.75595 | -75.98829 | 39661 ft | 444 kts | 225° |
| 2026-05-04 20:30 | 46.70985 | -76.04896 | 39659 ft | 444 kts | 225° |
| 2026-05-04 20:31 | 46.66417 | -76.10892 | 39661 ft | 444 kts | 225° |
| 2026-05-04 20:31 | 46.61843 | -76.16883 | 39653 ft | 443 kts | 225° |
| 2026-05-04 20:32 | 46.57269 | -76.22859 | 39652 ft | 442 kts | 225° |
| 2026-05-04 20:32 | 46.52693 | -76.28821 | 39651 ft | 442 kts | 225° |
| 2026-05-04 20:33 | 46.48093 | -76.34796 | 39652 ft | 441 kts | 226° |
| 2026-05-04 20:33 | 46.43539 | -76.40702 | 39648 ft | 441 kts | 225° |
| 2026-05-04 20:34 | 46.38961 | -76.46628 | 39646 ft | 441 kts | 225° |
| 2026-05-04 20:34 | 46.34381 | -76.52540 | 39638 ft | 441 kts | 226° |
| 2026-05-04 20:35 | 46.29802 | -76.58440 | 39656 ft | 440 kts | 226° |
| 2026-05-04 20:35 | 46.25241 | -76.64301 | 39643 ft | 440 kts | 226° |
| 2026-05-04 20:36 | 46.20666 | -76.70169 | 39628 ft | 440 kts | 225° |
| 2026-05-04 20:36 | 46.16086 | -76.76028 | 39642 ft | 440 kts | 226° |
| 2026-05-04 20:37 | 46.11527 | -76.81847 | 39648 ft | 438 kts | 225° |
| 2026-05-04 20:37 | 46.06949 | -76.87677 | 39639 ft | 438 kts | 225° |
| 2026-05-04 20:38 | 46.02379 | -76.93483 | 39626 ft | 438 kts | 225° |
| 2026-05-04 20:38 | 45.97829 | -76.99252 | 39619 ft | 438 kts | 225° |
| 2026-05-04 20:39 | 45.93236 | -77.05061 | 39609 ft | 438 kts | 225° |
| 2026-05-04 20:39 | 45.88671 | -77.10821 | 39610 ft | 438 kts | 225° |
| 2026-05-04 20:40 | 45.84085 | -77.16595 | 39586 ft | 438 kts | 225° |
| 2026-05-04 20:40 | 45.79508 | -77.22345 | 39609 ft | 438 kts | 225° |
| 2026-05-04 20:41 | 45.74942 | -77.28067 | 39616 ft | 437 kts | 225° |
| 2026-05-04 20:41 | 45.72642 | -77.30944 | 39482 ft | 436 kts | 225° |
| 2026-05-04 20:41 | 45.70377 | -77.33774 | 39266 ft | 433 kts | 226° |
| 2026-05-04 20:42 | 45.68102 | -77.36612 | 39047 ft | 431 kts | 226° |
| 2026-05-04 20:42 | 45.65854 | -77.39416 | 38803 ft | 430 kts | 226° |
| 2026-05-04 20:42 | 45.63595 | -77.42229 | 38580 ft | 428 kts | 226° |
| 2026-05-04 20:42 | 45.61365 | -77.45004 | 38363 ft | 426 kts | 226° |
| 2026-05-04 20:43 | 45.59178 | -77.47787 | 38096 ft | 423 kts | 229° |
| 2026-05-04 20:43 | 45.57101 | -77.50772 | 37802 ft | 421 kts | 231° |
| 2026-05-04 20:43 | 45.55085 | -77.53778 | 37544 ft | 421 kts | 232° |
| 2026-05-04 20:43 | 45.53074 | -77.56791 | 37259 ft | 420 kts | 232° |
| 2026-05-04 20:44 | 45.51039 | -77.59835 | 36970 ft | 420 kts | 232° |
| 2026-05-04 20:44 | 45.49041 | -77.62818 | 36681 ft | 419 kts | 232° |
| 2026-05-04 20:44 | 45.47032 | -77.65811 | 36414 ft | 418 kts | 232° |
| 2026-05-04 20:44 | 45.45014 | -77.68815 | 36149 ft | 418 kts | 232° |
| 2026-05-04 20:45 | 45.43017 | -77.71779 | 35846 ft | 413 kts | 232° |
| 2026-05-04 20:45 | 45.41034 | -77.74719 | 35397 ft | 411 kts | 233° |
| 2026-05-04 20:45 | 45.39065 | -77.77639 | 34870 ft | 411 kts | 233° |
| 2026-05-04 20:45 | 45.37069 | -77.80596 | 34330 ft | 411 kts | 233° |
| 2026-05-04 20:46 | 45.35090 | -77.83526 | 33763 ft | 412 kts | 233° |
| 2026-05-04 20:46 | 45.33116 | -77.86443 | 33126 ft | 413 kts | 233° |
| 2026-05-04 20:46 | 45.31123 | -77.89385 | 32502 ft | 412 kts | 233° |
| 2026-05-04 20:46 | 45.29135 | -77.92314 | 31922 ft | 411 kts | 233° |
| 2026-05-04 20:47 | 45.27145 | -77.95245 | 31332 ft | 411 kts | 233° |
| 2026-05-04 20:47 | 45.25185 | -77.98126 | 30932 ft | 405 kts | 233° |
| 2026-05-04 20:47 | 45.23249 | -78.00966 | 30547 ft | 400 kts | 233° |
| 2026-05-04 20:47 | 45.21324 | -78.03791 | 30120 ft | 396 kts | 233° |
| 2026-05-04 20:48 | 45.19401 | -78.06610 | 29691 ft | 392 kts | 232° |
| 2026-05-04 20:48 | 45.17526 | -78.09357 | 29227 ft | 387 kts | 232° |
| 2026-05-04 20:48 | 45.15674 | -78.12067 | 28822 ft | 381 kts | 232° |
| 2026-05-04 20:48 | 45.13846 | -78.14735 | 28424 ft | 375 kts | 232° |
| 2026-05-04 20:49 | 45.11891 | -78.17223 | 28011 ft | 377 kts | 225° |
| 2026-05-04 20:49 | 45.09819 | -78.19443 | 27606 ft | 377 kts | 223° |
| 2026-05-04 20:49 | 45.07692 | -78.21638 | 27180 ft | 376 kts | 223° |
| 2026-05-04 20:49 | 45.05597 | -78.23787 | 26784 ft | 374 kts | 223° |
| 2026-05-04 20:50 | 45.03479 | -78.25959 | 26365 ft | 371 kts | 223° |
| 2026-05-04 20:50 | 45.01406 | -78.28087 | 25940 ft | 369 kts | 223° |
| 2026-05-04 20:50 | 44.99350 | -78.30197 | 25516 ft | 366 kts | 223° |
| 2026-05-04 20:50 | 44.97289 | -78.32312 | 25086 ft | 363 kts | 223° |
| 2026-05-04 20:51 | 44.95259 | -78.34395 | 24705 ft | 360 kts | 223° |
| 2026-05-04 20:51 | 44.93251 | -78.36454 | 24313 ft | 358 kts | 222° |
| 2026-05-04 20:51 | 44.91226 | -78.38528 | 23895 ft | 356 kts | 222° |
| 2026-05-04 20:51 | 44.89239 | -78.40562 | 23482 ft | 353 kts | 222° |
| 2026-05-04 20:52 | 44.87260 | -78.42587 | 23069 ft | 351 kts | 222° |
| 2026-05-04 20:52 | 44.85285 | -78.44605 | 22657 ft | 348 kts | 222° |
| 2026-05-04 20:52 | 44.83352 | -78.46578 | 22263 ft | 346 kts | 222° |
| 2026-05-04 20:52 | 44.81394 | -78.48576 | 21859 ft | 344 kts | 222° |
| 2026-05-04 20:53 | 44.79479 | -78.50528 | 21463 ft | 342 kts | 222° |
| 2026-05-04 20:53 | 44.77545 | -78.52498 | 21104 ft | 341 kts | 222° |
| 2026-05-04 20:53 | 44.75596 | -78.54490 | 20858 ft | 351 kts | 221° |
| 2026-05-04 20:53 | 44.73629 | -78.56489 | 20592 ft | 346 kts | 221° |
| 2026-05-04 20:54 | 44.71693 | -78.58451 | 20202 ft | 342 kts | 221° |
| 2026-05-04 20:54 | 44.69766 | -78.60403 | 19815 ft | 339 kts | 221° |
| 2026-05-04 20:54 | 44.67878 | -78.62317 | 19429 ft | 336 kts | 221° |
| 2026-05-04 20:54 | 44.65988 | -78.64231 | 19054 ft | 332 kts | 221° |
| 2026-05-04 20:55 | 44.64124 | -78.66118 | 18670 ft | 330 kts | 221° |
| 2026-05-04 20:55 | 44.62270 | -78.67994 | 18280 ft | 327 kts | 221° |
| 2026-05-04 20:55 | 44.60428 | -78.69856 | 17915 ft | 325 kts | 221° |
| 2026-05-04 20:55 | 44.58612 | -78.71691 | 17509 ft | 323 kts | 221° |
| 2026-05-04 20:56 | 44.56772 | -78.73548 | 17124 ft | 321 kts | 221° |
| 2026-05-04 20:56 | 44.54976 | -78.75362 | 16746 ft | 319 kts | 221° |
| 2026-05-04 20:56 | 44.53172 | -78.77179 | 16372 ft | 317 kts | 221° |
| 2026-05-04 20:56 | 44.51397 | -78.78965 | 15991 ft | 316 kts | 220° |
| 2026-05-04 20:57 | 44.49626 | -78.80746 | 15626 ft | 313 kts | 220° |
| 2026-05-04 20:57 | 44.47858 | -78.82523 | 15251 ft | 311 kts | 220° |
| 2026-05-04 20:57 | 44.46103 | -78.84286 | 14872 ft | 309 kts | 220° |
| 2026-05-04 20:57 | 44.44359 | -78.86038 | 14491 ft | 307 kts | 219° |
| 2026-05-04 20:58 | 44.42615 | -78.87788 | 14136 ft | 306 kts | 219° |
| 2026-05-04 20:58 | 44.40903 | -78.89504 | 13793 ft | 304 kts | 219° |
| 2026-05-04 20:58 | 44.39176 | -78.91233 | 13418 ft | 302 kts | 219° |
| 2026-05-04 20:58 | 44.37479 | -78.92932 | 13027 ft | 300 kts | 219° |
| 2026-05-04 20:59 | 44.35795 | -78.94616 | 12667 ft | 299 kts | 219° |
| 2026-05-04 20:59 | 44.34112 | -78.96297 | 12319 ft | 297 kts | 219° |
| 2026-05-04 20:59 | 44.32429 | -78.97977 | 11966 ft | 295 kts | 219° |
| 2026-05-04 20:59 | 44.30770 | -78.99634 | 11619 ft | 294 kts | 219° |
| 2026-05-04 21:00 | 44.29115 | -79.01285 | 11263 ft | 292 kts | 219° |
| 2026-05-04 21:00 | 44.27460 | -79.02932 | 10907 ft | 289 kts | 219° |
| 2026-05-04 21:00 | 44.25852 | -79.04538 | 10715 ft | 279 kts | 220° |
| 2026-05-04 21:00 | 44.24419 | -79.06265 | 10660 ft | 263 kts | 229° |
| 2026-05-04 21:01 | 44.23188 | -79.08056 | 10541 ft | 253 kts | 231° |
| 2026-05-04 21:01 | 44.22009 | -79.09843 | 10417 ft | 245 kts | 232° |
| 2026-05-04 21:01 | 44.20879 | -79.11563 | 10290 ft | 238 kts | 232° |
| 2026-05-04 21:01 | 44.20137 | -79.12691 | 10130 ft | 238 kts | 232° |
| 2026-05-04 21:02 | 44.19020 | -79.14389 | 9835 ft | 238 kts | 232° |
| 2026-05-04 21:02 | 44.17900 | -79.16088 | 9572 ft | 238 kts | 231° |
| 2026-05-04 21:02 | 44.16413 | -79.18337 | 9261 ft | 234 kts | 231° |
| 2026-05-04 21:02 | 44.15687 | -79.19430 | 9201 ft | 226 kts | 231° |
| 2026-05-04 21:03 | 44.14639 | -79.21006 | 9122 ft | 217 kts | 231° |
| 2026-05-04 21:03 | 44.13629 | -79.22525 | 9028 ft | 210 kts | 231° |
| 2026-05-04 21:03 | 44.12664 | -79.23981 | 8919 ft | 203 kts | 231° |
| 2026-05-04 21:03 | 44.11719 | -79.25406 | 8728 ft | 201 kts | 231° |
| 2026-05-04 21:04 | 44.10758 | -79.26858 | 8515 ft | 202 kts | 231° |
| 2026-05-04 21:04 | 44.09812 | -79.28285 | 8328 ft | 201 kts | 231° |
| 2026-05-04 21:04 | 44.08868 | -79.29707 | 8115 ft | 199 kts | 231° |
| 2026-05-04 21:04 | 44.07866 | -79.31096 | 7996 ft | 213 kts | 224° |
| 2026-05-04 21:05 | 44.06530 | -79.32109 | 7723 ft | 229 kts | 201° |
| 2026-05-04 21:05 | 44.04914 | -79.32310 | 7471 ft | 236 kts | 186° |
| 2026-05-04 21:05 | 44.03263 | -79.32179 | 7252 ft | 238 kts | 183° |
| 2026-05-04 21:05 | 44.01630 | -79.32005 | 7019 ft | 237 kts | 183° |
| 2026-05-04 21:06 | 43.99982 | -79.31837 | 6778 ft | 236 kts | 183° |
| 2026-05-04 21:06 | 43.98340 | -79.31680 | 6565 ft | 235 kts | 184° |
| 2026-05-04 21:06 | 43.96718 | -79.31531 | 6330 ft | 233 kts | 184° |
| 2026-05-04 21:06 | 43.95110 | -79.31389 | 6107 ft | 232 kts | 184° |
| 2026-05-04 21:07 | 43.93495 | -79.31253 | 5875 ft | 230 kts | 184° |
| 2026-05-04 21:07 | 43.91902 | -79.31120 | 5630 ft | 230 kts | 184° |
| 2026-05-04 21:07 | 43.90320 | -79.30984 | 5415 ft | 229 kts | 185° |
| 2026-05-04 21:07 | 43.88744 | -79.30928 | 5211 ft | 224 kts | 192° |
| 2026-05-04 21:08 | 43.87751 | -79.31213 | 5045 ft | 214 kts | 208° |
| 2026-05-04 21:09 | 43.83394 | -79.37134 | 4336 ft | 187 kts | 231° |
| 2026-05-04 21:09 | 43.82501 | -79.38462 | 4109 ft | 186 kts | 230° |
| 2026-05-04 21:09 | 43.81620 | -79.39754 | 3866 ft | 187 kts | 229° |
| 2026-05-04 21:09 | 43.80729 | -79.41050 | 3667 ft | 183 kts | 229° |
| 2026-05-04 21:10 | 43.79861 | -79.42307 | 3491 ft | 180 kts | 228° |
| 2026-05-04 21:10 | 43.79001 | -79.43556 | 3300 ft | 181 kts | 227° |
| 2026-05-04 21:10 | 43.78119 | -79.44844 | 3125 ft | 185 kts | 226° |
| 2026-05-04 21:10 | 43.77254 | -79.46113 | 3035 ft | 177 kts | 226° |
| 2026-05-04 21:11 | 43.76436 | -79.47304 | 2985 ft | 163 kts | 226° |
| 2026-05-04 21:11 | 43.75670 | -79.48418 | 2806 ft | 158 kts | 225° |
| 2026-05-04 21:11 | 43.74930 | -79.49495 | 2597 ft | 154 kts | 225° |
| 2026-05-04 21:11 | 43.74208 | -79.50548 | 2395 ft | 148 kts | 225° |
| 2026-05-04 21:12 | 43.73514 | -79.51558 | 2192 ft | 142 kts | 226° |
| 2026-05-04 21:12 | 43.72860 | -79.52513 | 1994 ft | 130 kts | 226° |
| 2026-05-04 21:12 | 43.72268 | -79.53375 | 1848 ft | 118 kts | 224° |
| 2026-05-04 21:12 | 43.71708 | -79.54189 | 1681 ft | 118 kts | 224° |
| 2026-05-04 21:13 | 43.71142 | -79.55010 | 1515 ft | 119 kts | 223° |
| 2026-05-04 21:13 | 43.70559 | -79.55854 | 1356 ft | 121 kts | 225° |
| 2026-05-04 21:13 | 43.69979 | -79.56702 | 1199 ft | 121 kts | 226° |
| 2026-05-04 21:13 | 43.69407 | -79.57535 | 1047 ft | 119 kts | 227° |
| 2026-05-04 21:14 | 43.68832 | -79.58364 | 903 ft | 119 kts | 229° |
| 2026-05-04 21:14 | 43.68258 | -79.59199 | 715 ft | 118 kts | 226° |
| 2026-05-04 21:14 | 43.67699 | -79.60019 | 580 ft | 117 kts | 226° |
| 2026-05-04 21:14 | 43.67223 | -79.60715 | 573 ft | 74 kts | 226° |
| 2026-05-04 21:15 | 43.67003 | -79.61037 | 577 ft | 28 kts | 230° |
| 2026-05-04 21:15 | 43.66922 | -79.61251 | 574 ft | 22 kts | 253° |
| 2026-05-04 21:15 | 43.66899 | -79.61391 | 567 ft | 10 kts | 278° |
| 2026-05-04 21:15 | 43.66929 | -79.61429 | 571 ft | 5 kts | 341° |
| 2026-05-04 21:16 | 43.66954 | -79.61427 | 575 ft | 2 kts | 18° |
| 2026-05-04 21:16 | 43.66967 | -79.61414 | 574 ft | 3 kts | 37° |
| 2026-05-04 21:16 | 43.66990 | -79.61383 | 576 ft | 6 kts | 45° |
| 2026-05-04 21:16 | 43.67033 | -79.61323 | 576 ft | 10 kts | 45° |
| 2026-05-04 21:17 | 43.67089 | -79.61241 | 576 ft | 15 kts | 45° |
| 2026-05-04 21:17 | 43.67157 | -79.61149 | 573 ft | 11 kts | 41° |
| 2026-05-04 21:17 | 43.67207 | -79.61170 | 571 ft | 8 kts | 316° |
| 2026-05-04 21:17 | 43.67247 | -79.61222 | 568 ft | 8 kts | 316° |
| 2026-05-04 21:18 | 43.67291 | -79.61281 | 569 ft | 9 kts | 316° |
| 2026-05-04 21:18 | 43.67341 | -79.61348 | 569 ft | 11 kts | 316° |
| 2026-05-04 21:18 | 43.67398 | -79.61420 | 572 ft | 12 kts | 317° |
| 2026-05-04 21:18 | 43.67460 | -79.61500 | 569 ft | 13 kts | 317° |
| 2026-05-04 21:19 | 43.67504 | -79.61556 | 571 ft | 7 kts | 317° |
| 2026-05-04 21:19 | 43.67543 | -79.61606 | 573 ft | 8 kts | 317° |
| 2026-05-04 21:19 | 43.67589 | -79.61665 | 576 ft | 10 kts | 317° |
| 2026-05-04 21:19 | 43.67640 | -79.61733 | 573 ft | 11 kts | 315° |
| 2026-05-04 21:20 | 43.67701 | -79.61813 | 575 ft | 13 kts | 316° |
| 2026-05-04 21:20 | 43.67768 | -79.61904 | 574 ft | 14 kts | 315° |
| 2026-05-04 21:20 | 43.67844 | -79.62002 | 573 ft | 16 kts | 318° |
| 2026-05-04 21:20 | 43.67909 | -79.62064 | 572 ft | 10 kts | 351° |
| 2026-05-04 21:21 | 43.67972 | -79.62022 | 575 ft | 11 kts | 40° |
| 2026-05-04 21:21 | 43.68039 | -79.62020 | 572 ft | 11 kts | 330° |
| 2026-05-04 21:21 | 43.68086 | -79.62075 | 568 ft | 2 kts | 317° |
| 2026-05-04 21:21 | 43.68102 | -79.62087 | 575 ft | 3 kts | 340° |
| 2026-05-04 21:22 | 43.68123 | -79.62082 | 571 ft | 3 kts | 27° |
| 2026-05-04 21:22 | 43.68149 | -79.62059 | 573 ft | 6 kts | 32° |
| 2026-05-04 21:22 | 43.68170 | -79.62041 | 575 ft | 2 kts | 32° |
| 2026-05-04 21:22 | 43.68171 | -79.62040 | 575 ft | 0 kts | 32° |